Time;durP1;ratioP1;P1;durP2;ratioP2;P2;SDS_P1;SDS_P2;PMS_P1;PMS_P2;Temp;Humidity;BMP_temperature;BMP_pressure;BME280_temperature;BME280_humidity;BME280_pressure;Samples;Min_cycle;Max_cycle;Signal;HPM_P1;HPM_P2
2022/11/10 00:00:29;;;;;;;;;;;;;;;7.68;88.10;100489.45;116155;1287;22448;-67
2022/11/10 00:03:34;;;;;;;;;;;;;;;7.67;88.13;100488.95;116111;1306;25192;-69
2022/11/10 00:06:22;;;;;;;;;;;;;;;7.65;88.04;100485.70;116133;1287;22543;-71
2022/11/10 00:09:10;;;;;;;;;;;;;;;7.67;88.01;100479.73;116118;1305;22473;-71
2022/11/10 00:11:57;;;;;;;;;;;;;;;7.73;88.09;100468.84;116100;1280;22453;-70
2022/11/10 00:17:52;;;;;;;;;;;;;;;7.84;88.07;100480.03;116108;1301;22466;-69
2022/11/10 00:20:43;;;;;;;;;;;;;;;7.82;87.76;100487.03;116114;1306;22414;-68
2022/11/10 00:23:33;;;;;;;;;;;;;;;7.78;87.74;100487.30;116100;1306;22450;-68
2022/11/10 00:26:22;;;;;;;;;;;;;;;7.76;87.71;100483.35;116094;1306;22437;-69
2022/11/10 00:29:12;;;;;;;;;;;;;;;7.72;87.66;100493.52;116145;1305;22665;-70
2022/11/10 00:32:02;;;;;;;;;;;;;;;7.68;87.85;100506.11;116095;1298;24246;-68
2022/11/10 00:34:49;;;;;;;;;;;;;;;7.64;87.72;100503.79;116133;1306;24256;-69
2022/11/10 00:37:36;;;;;;;;;;;;;;;7.64;87.73;100502.22;116020;1306;22458;-68
2022/11/10 00:40:25;;;;;;;;;;;;;;;7.68;87.86;100500.39;116166;1306;22455;-69
2022/11/10 00:43:17;;;;;;;;;;;;;;;7.72;87.92;100498.38;116123;1306;24240;-69
2022/11/10 00:46:05;;;;;;;;;;;;;;;7.77;88.02;100503.46;116121;1306;24295;-71
2022/11/10 00:48:52;;;;;;;;;;;;;;;7.82;87.99;100503.70;116136;1289;22445;-71
2022/11/10 00:51:39;;;;;;;;;;;;;;;7.84;88.05;100508.87;116126;1306;22410;-68
2022/11/10 00:54:27;;;;;;;;;;;;;;;7.85;87.92;100507.97;116120;1306;24257;-70
2022/11/10 00:57:15;;;;;;;;;;;;;;;7.84;87.76;100500.36;115622;1306;475420;-70
2022/11/10 01:00:02;;;;;;;;;;;;;;;7.81;87.80;100501.46;116097;1302;22460;-71
2022/11/10 01:02:52;;;;;;;;;;;;;;;7.77;87.64;100506.77;116078;1286;22709;-69
2022/11/10 01:05:39;;;;;;;;;;;;;;;7.74;87.58;100510.49;116083;1306;22456;-69
2022/11/10 01:08:27;;;;;;;;;;;;;;;7.73;87.54;100509.30;116066;1306;22457;-69
2022/11/10 01:11:16;;;;;;;;;;;;;;;7.77;87.74;100512.52;116123;1296;22528;-69
2022/11/10 01:14:03;;;;;;;;;;;;;;;7.81;87.83;100507.54;116115;1306;22443;-69
2022/11/10 01:16:51;;;;;;;;;;;;;;;7.89;88.09;100505.79;116144;1287;22444;-68
2022/11/10 01:19:38;;;;;;;;;;;;;;;7.91;87.86;100511.46;116119;1295;22444;-69
2022/11/10 01:22:27;;;;;;;;;;;;;;;7.94;87.94;100504.63;116091;1297;22517;-70
2022/11/10 01:25:14;;;;;;;;;;;;;;;7.93;87.83;100501.34;116146;1282;22447;-69
2022/11/10 01:28:03;;;;;;;;;;;;;;;7.92;87.80;100502.41;116103;1306;22495;-71
2022/11/10 01:30:53;;;;;;;;;;;;;;;7.89;87.58;100499.89;116113;1287;22442;-70
2022/11/10 01:33:40;;;;;;;;;;;;;;;7.85;87.68;100500.49;116085;1290;22436;-70
2022/11/10 01:36:30;;;;;;;;;;;;;;;7.84;87.56;100498.80;116116;1290;25189;-69
2022/11/10 01:39:20;;;;;;;;;;;;;;;7.85;87.67;100501.03;116080;1305;22489;-69
2022/11/10 01:42:10;;;;;;;;;;;;;;;7.89;87.69;100500.39;116057;1290;24950;-69
2022/11/10 01:45:40;;;;;;;;;;;;;;;7.96;87.89;100496.94;116117;1300;22460;-70
2022/11/10 01:48:32;;;;;;;;;;;;;;;8.04;87.88;100497.25;115923;1306;22522;-70
2022/11/10 01:51:21;;;;;;;;;;;;;;;8.10;87.94;100502.50;116142;1306;22460;-69
2022/11/10 01:54:16;;;;;;;;;;;;;;;8.11;87.68;100500.71;116100;1290;22457;-69
2022/11/10 01:57:07;;;;;;;;;;;;;;;8.09;87.47;100500.42;116107;1303;23723;-69
2022/11/10 01:59:54;;;;;;;;;;;;;;;8.08;87.49;100503.94;116144;1306;24293;-69
2022/11/10 02:02:44;;;;;;;;;;;;;;;8.05;87.36;100504.52;116092;1301;22479;-70
2022/11/10 02:05:36;;;;;;;;;;;;;;;8.02;87.29;100505.45;116154;1306;22448;-71
2022/11/10 02:08:24;;;;;;;;;;;;;;;8.03;87.42;100508.91;116114;1306;22460;-70
2022/11/10 02:11:11;;;;;;;;;;;;;;;8.09;87.47;100510.52;116166;1306;22397;-70
2022/11/10 02:13:58;;;;;;;;;;;;;;;8.15;87.55;100511.89;116104;1306;22462;-68
2022/11/10 02:16:46;;;;;;;;;;;;;;;8.23;87.72;100508.04;116136;1301;22440;-69
2022/11/10 02:19:39;;;;;;;;;;;;;;;8.28;87.64;100509.32;116148;1297;22596;-69
2022/11/10 02:22:29;;;;;;;;;;;;;;;8.29;87.35;100505.64;116099;1303;22442;-68
2022/11/10 02:25:19;;;;;;;;;;;;;;;8.30;87.46;100509.59;116116;1287;22928;-68
2022/11/10 02:28:09;;;;;;;;;;;;;;;8.29;87.29;100513.80;116107;1306;22445;-68
2022/11/10 02:30:57;;;;;;;;;;;;;;;8.28;87.23;100512.96;116121;1306;22455;-70
2022/11/10 02:33:44;;;;;;;;;;;;;;;8.29;87.14;100514.66;116079;1287;22442;-69
2022/11/10 02:36:32;;;;;;;;;;;;;;;8.34;87.18;100523.60;116153;1293;22582;-69
2022/11/10 02:39:19;;;;;;;;;;;;;;;8.37;87.24;100524.73;116121;1306;24392;-69
2022/11/10 02:42:09;;;;;;;;;;;;;;;8.41;87.36;100532.11;116094;1306;22404;-68
2022/11/10 02:44:58;;;;;;;;;;;;;;;8.45;87.37;100529.75;116157;1296;22455;-69
2022/11/10 02:47:45;;;;;;;;;;;;;;;8.47;87.36;100533.16;116101;1306;22463;-69
2022/11/10 02:50:33;;;;;;;;;;;;;;;8.45;87.11;100531.84;116165;1287;22573;-68
2022/11/10 02:53:24;;;;;;;;;;;;;;;8.42;87.03;100539.21;116134;1292;22457;-69
2022/11/10 02:56:12;;;;;;;;;;;;;;;8.38;87.10;100542.11;116105;1286;25928;-71
2022/11/10 02:59:02;;;;;;;;;;;;;;;8.36;86.95;100546.65;116077;1290;25368;-69
2022/11/10 03:01:51;;;;;;;;;;;;;;;8.35;86.93;100552.21;116138;1296;22441;-69
2022/11/10 03:04:39;;;;;;;;;;;;;;;8.38;87.15;100546.45;116120;1304;25362;-70
2022/11/10 03:07:29;;;;;;;;;;;;;;;8.44;87.31;100546.29;116085;1306;22452;-69
2022/11/10 03:10:16;;;;;;;;;;;;;;;8.47;87.14;100537.33;116157;1279;22457;-69
2022/11/10 03:13:08;;;;;;;;;;;;;;;8.47;87.12;100537.16;116102;1306;22553;-69
2022/11/10 03:15:55;;;;;;;;;;;;;;;8.47;87.22;100537.50;116098;1296;22380;-69
2022/11/10 03:18:43;;;;;;;;;;;;;;;8.47;87.10;100536.81;116078;1287;25207;-69
2022/11/10 03:21:33;;;;;;;;;;;;;;;8.45;86.97;100539.65;116142;1293;22496;-69
2022/11/10 03:24:23;;;;;;;;;;;;;;;8.42;87.01;100544.77;116109;1306;22767;-69
2022/11/10 03:27:12;;;;;;;;;;;;;;;8.37;86.94;100546.64;116110;1302;22766;-70
2022/11/10 03:30:01;;;;;;;;;;;;;;;8.36;86.87;100550.48;116154;1304;22455;-69
2022/11/10 03:32:48;;;;;;;;;;;;;;;8.36;86.99;100550.66;116102;1299;22445;-71
2022/11/10 03:35:35;;;;;;;;;;;;;;;8.44;87.28;100556.73;116148;1286;22389;-70
2022/11/10 03:38:28;;;;;;;;;;;;;;;8.50;87.45;100559.86;116115;1295;22453;-70
2022/11/10 03:41:15;;;;;;;;;;;;;;;8.56;87.44;100553.44;116114;1287;22461;-71
2022/11/10 03:44:03;;;;;;;;;;;;;;;8.58;87.32;100550.09;116080;1296;22453;-71
2022/11/10 03:46:50;;;;;;;;;;;;;;;8.59;87.06;100549.73;116124;1279;25363;-71
2022/11/10 03:49:37;;;;;;;;;;;;;;;8.56;87.02;100554.30;116108;1306;22438;-69
2022/11/10 03:52:24;;;;;;;;;;;;;;;8.52;86.93;100557.70;116092;1306;22466;-69
2022/11/10 03:55:13;;;;;;;;;;;;;;;8.50;87.04;100560.89;116123;1306;22442;-69
2022/11/10 03:58:06;;;;;;;;;;;;;;;8.49;87.05;100572.05;116075;1306;22561;-69
2022/11/10 04:00:55;;;;;;;;;;;;;;;8.50;87.19;100571.31;116128;1290;22452;-68
2022/11/10 04:03:44;;;;;;;;;;;;;;;8.54;87.31;100574.02;116072;1306;22439;-69
2022/11/10 04:09:36;;;;;;;;;;;;;;;8.62;87.46;100567.89;116093;1290;22487;-69
2022/11/10 04:15:43;;;;;;;;;;;;;;;8.62;87.44;100570.33;116131;1305;22455;-69
2022/11/10 04:18:33;;;;;;;;;;;;;;;8.59;87.44;100580.33;116121;1290;22431;-68
2022/11/10 04:21:21;;;;;;;;;;;;;;;8.58;87.38;100582.63;116211;1290;22446;-69
2022/11/10 04:24:13;;;;;;;;;;;;;;;8.60;87.44;100579.59;116139;1299;25240;-69
2022/11/10 04:27:01;;;;;;;;;;;;;;;8.64;87.47;100585.93;116139;1306;22523;-69
2022/11/10 04:29:49;;;;;;;;;;;;;;;8.69;87.55;100584.76;116199;1295;22462;-69
2022/11/10 04:32:36;;;;;;;;;;;;;;;8.73;87.67;100590.20;116117;1287;22457;-70
2022/11/10 04:35:26;;;;;;;;;;;;;;;8.76;87.94;100585.59;116166;1290;22404;-69
2022/11/10 04:38:13;;;;;;;;;;;;;;;8.78;87.93;100584.50;116172;1287;22480;-68
2022/11/10 04:41:01;;;;;;;;;;;;;;;8.78;87.58;100591.64;115989;1296;22885;-68
2022/11/10 04:43:50;;;;;;;;;;;;;;;8.73;87.51;100596.45;116066;1306;22445;-69
2022/11/10 04:46:38;;;;;;;;;;;;;;;8.73;87.57;100604.30;116108;1298;24399;-69
2022/11/10 04:49:28;;;;;;;;;;;;;;;8.75;87.79;100604.92;116142;1299;22676;-69
2022/11/10 04:52:15;;;;;;;;;;;;;;;8.81;87.97;100605.64;116038;1301;22404;-69
2022/11/10 04:55:03;;;;;;;;;;;;;;;8.85;87.97;100601.00;116153;1306;22460;-70
2022/11/10 04:57:51;;;;;;;;;;;;;;;8.87;87.99;100601.33;116084;1292;22735;-70
2022/11/10 05:00:41;;;;;;;;;;;;;;;8.88;88.05;100603.55;116128;1282;22390;-71
2022/11/10 05:03:31;;;;;;;;;;;;;;;8.88;88.09;100604.78;116115;1299;22456;-70
2022/11/10 05:06:18;;;;;;;;;;;;;;;8.87;88.18;100607.07;116145;1286;22455;-70
2022/11/10 05:09:11;;;;;;;;;;;;;;;8.88;88.19;100604.59;116125;1306;24271;-70
2022/11/10 05:12:04;;;;;;;;;;;;;;;8.91;88.06;100603.10;116174;1301;22463;-69
2022/11/10 05:14:55;;;;;;;;;;;;;;;8.93;88.17;100602.54;116196;1291;24246;-69
2022/11/10 05:17:49;;;;;;;;;;;;;;;8.94;88.32;100612.23;116179;1287;22458;-70
2022/11/10 05:20:37;;;;;;;;;;;;;;;8.96;88.40;100614.98;116180;1299;23900;-71
2022/11/10 05:23:42;;;;;;;;;;;;;;;8.95;88.36;100618.66;116119;1295;22711;-71
2022/11/10 05:26:32;;;;;;;;;;;;;;;8.91;88.44;100624.85;116125;1306;22514;-70
2022/11/10 05:29:25;;;;;;;;;;;;;;;8.86;88.42;100628.10;116105;1284;22429;-71
2022/11/10 05:32:12;;;;;;;;;;;;;;;8.85;88.57;100638.41;116100;1287;22419;-71
2022/11/10 05:38:03;;;;;;;;;;;;;;;8.89;88.91;100645.46;116068;1296;23811;-70
2022/11/10 05:40:50;;;;;;;;;;;;;;;8.94;89.16;100652.26;116128;1290;22465;-71
2022/11/10 05:43:40;;;;;;;;;;;;;;;8.99;89.33;100654.56;116124;1306;22477;-72
2022/11/10 05:46:31;;;;;;;;;;;;;;;9.02;89.31;100659.70;116104;1306;22453;-70
2022/11/10 05:49:18;;;;;;;;;;;;;;;9.02;89.39;100664.42;116139;1306;22445;-70
2022/11/10 05:52:10;;;;;;;;;;;;;;;9.01;89.33;100676.62;116165;1306;22439;-68
2022/11/10 05:54:58;;;;;;;;;;;;;;;9.02;89.25;100676.59;116164;1292;22444;-69
2022/11/10 05:57:49;;;;;;;;;;;;;;;9.05;89.29;100678.77;116143;1301;22559;-70
2022/11/10 06:00:40;;;;;;;;;;;;;;;9.07;89.45;100684.46;116157;1306;22435;-69
2022/11/10 06:03:29;;;;;;;;;;;;;;;9.10;89.59;100689.61;116186;1294;24269;-70
2022/11/10 06:06:17;;;;;;;;;;;;;;;9.12;89.71;100695.65;116182;1290;22453;-70
2022/11/10 06:09:10;;;;;;;;;;;;;;;9.13;89.80;100697.17;116173;1279;22440;-71
2022/11/10 06:12:00;;;;;;;;;;;;;;;9.10;89.56;100700.92;116140;1306;24267;-73
2022/11/10 06:14:49;;;;;;;;;;;;;;;9.08;89.68;100707.76;116120;1306;22475;-70
2022/11/10 06:17:38;;;;;;;;;;;;;;;9.09;89.47;100710.86;116086;1287;22460;-69
2022/11/10 06:20:26;;;;;;;;;;;;;;;9.11;89.62;100711.67;116105;1297;25255;-71
2022/11/10 06:23:13;;;;;;;;;;;;;;;9.15;89.92;100714.52;116026;1296;22455;-70
2022/11/10 06:26:01;;;;;;;;;;;;;;;9.19;90.03;100719.30;116114;1306;22421;-69
2022/11/10 06:28:50;;;;;;;;;;;;;;;9.21;90.06;100724.30;116099;1297;22460;-70
2022/11/10 06:31:38;;;;;;;;;;;;;;;9.22;90.12;100728.29;116113;1290;22456;-73
2022/11/10 06:34:26;;;;;;;;;;;;;;;9.19;89.76;100729.04;116157;1306;24421;-70
2022/11/10 06:37:19;;;;;;;;;;;;;;;9.16;89.96;100729.48;116101;1301;22429;-71
2022/11/10 06:40:12;;;;;;;;;;;;;;;9.15;89.95;100733.69;116165;1295;22450;-68
2022/11/10 06:43:04;;;;;;;;;;;;;;;9.16;90.30;100739.58;116095;1306;22649;-68
2022/11/10 06:45:53;;;;;;;;;;;;;;;9.20;90.23;100747.82;116176;1299;22400;-70
2022/11/10 06:48:43;;;;;;;;;;;;;;;9.26;90.55;100752.36;115976;1290;22961;-69
2022/11/10 06:51:35;;;;;;;;;;;;;;;9.29;90.60;100764.80;116099;1290;22445;-68
2022/11/10 06:54:25;;;;;;;;;;;;;;;9.28;90.48;100767.12;116063;1287;24275;-71
2022/11/10 06:57:15;;;;;;;;;;;;;;;9.26;90.37;100774.46;116075;1287;22455;-71
2022/11/10 07:00:03;;;;;;;;;;;;;;;9.25;90.48;100769.95;116124;1287;25255;-70
2022/11/10 07:02:55;;;;;;;;;;;;;;;9.26;90.49;100775.15;116093;1306;22905;-70
2022/11/10 07:05:45;;;;;;;;;;;;;;;9.31;90.73;100780.09;116127;1291;22691;-70
2022/11/10 07:08:34;;;;;;;;;;;;;;;9.38;90.86;100781.46;116105;1287;22513;-70
2022/11/10 07:11:21;;;;;;;;;;;;;;;9.43;90.88;100780.80;116153;1287;22461;-70
2022/11/10 07:14:10;;;;;;;;;;;;;;;9.48;91.05;100785.89;116107;1306;22620;-70
2022/11/10 07:17:00;;;;;;;;;;;;;;;9.50;91.12;100779.90;116102;1287;25931;-69
2022/11/10 07:19:51;;;;;;;;;;;;;;;9.51;90.88;100781.98;116170;1287;22488;-72
2022/11/10 07:22:38;;;;;;;;;;;;;;;9.51;90.93;100786.52;116155;1296;22521;-70
2022/11/10 07:25:28;;;;;;;;;;;;;;;9.54;91.05;100787.66;116170;1298;22443;-70
2022/11/10 07:28:16;;;;;;;;;;;;;;;9.59;91.14;100790.30;116139;1286;22456;-70
2022/11/10 07:31:05;;;;;;;;;;;;;;;9.64;91.28;100788.27;116147;1290;22450;-71
2022/11/10 07:33:55;;;;;;;;;;;;;;;9.67;91.26;100792.16;116118;1305;22483;-68
2022/11/10 07:36:43;;;;;;;;;;;;;;;9.71;91.34;100796.08;116145;1306;25370;-69
2022/11/10 07:39:31;;;;;;;;;;;;;;;9.71;91.31;100802.88;116132;1306;24200;-69
2022/11/10 07:42:19;;;;;;;;;;;;;;;9.74;91.36;100805.73;116096;1290;24300;-71
2022/11/10 07:45:10;;;;;;;;;;;;;;;9.78;91.30;100806.14;116124;1305;22509;-69
2022/11/10 07:48:01;;;;;;;;;;;;;;;9.86;91.65;100807.00;116106;1287;25547;-70
2022/11/10 07:50:50;;;;;;;;;;;;;;;9.90;91.44;100811.58;116097;1292;22452;-69
2022/11/10 07:53:40;;;;;;;;;;;;;;;9.91;91.62;100813.82;116087;1306;22453;-69
2022/11/10 07:56:30;;;;;;;;;;;;;;;9.92;91.70;100817.44;116152;1303;22404;-68
2022/11/10 07:59:21;;;;;;;;;;;;;;;9.92;91.43;100821.29;116138;1306;25360;-71
2022/11/10 08:02:11;;;;;;;;;;;;;;;9.93;91.64;100823.00;116155;1303;22440;-70
2022/11/10 08:05:00;;;;;;;;;;;;;;;9.94;91.57;100823.30;116183;1306;22454;-68
2022/11/10 08:07:51;;;;;;;;;;;;;;;9.99;91.67;100832.41;116117;1292;22525;-69
2022/11/10 08:10:42;;;;;;;;;;;;;;;10.05;91.78;100842.89;116036;1306;22448;-70
2022/11/10 08:13:29;;;;;;;;;;;;;;;10.08;91.92;100847.64;116115;1291;22449;-70
2022/11/10 08:16:21;;;;;;;;;;;;;;;10.10;91.68;100848.14;116169;1306;22463;-72
2022/11/10 08:19:11;;;;;;;;;;;;;;;10.10;91.69;100853.71;116146;1306;22419;-70
2022/11/10 08:22:01;;;;;;;;;;;;;;;10.11;91.77;100852.66;116106;1305;22449;-68
2022/11/10 08:24:49;;;;;;;;;;;;;;;10.14;91.69;100851.67;116097;1305;22456;-68
2022/11/10 08:27:39;;;;;;;;;;;;;;;10.19;91.93;100853.10;116094;1287;25935;-69
2022/11/10 08:30:26;;;;;;;;;;;;;;;10.26;91.91;100859.91;116111;1306;22517;-69
2022/11/10 08:33:14;;;;;;;;;;;;;;;10.29;91.90;100864.00;116088;1306;22451;-70
2022/11/10 08:36:07;;;;;;;;;;;;;;;10.32;91.97;100865.31;116097;1306;22460;-69
2022/11/10 08:38:55;;;;;;;;;;;;;;;10.32;91.82;100874.38;116093;1286;22577;-69
2022/11/10 08:41:42;;;;;;;;;;;;;;;10.32;91.94;100869.66;116142;1306;22597;-71
2022/11/10 08:44:29;;;;;;;;;;;;;;;10.34;91.72;100873.09;116120;1306;22457;-71
2022/11/10 08:47:16;;;;;;;;;;;;;;;10.39;91.93;100882.58;116111;1279;25520;-70
2022/11/10 08:50:07;;;;;;;;;;;;;;;10.45;92.20;100885.70;116111;1305;24440;-70
2022/11/10 08:52:54;;;;;;;;;;;;;;;10.53;92.25;100891.89;116175;1306;22729;-69
2022/11/10 08:55:45;;;;;;;;;;;;;;;10.59;92.12;100897.67;116198;1295;22463;-70
2022/11/10 08:58:34;;;;;;;;;;;;;;;10.61;92.02;100906.86;115795;1306;459504;-69
2022/11/10 09:01:27;;;;;;;;;;;;;;;10.60;91.91;100914.92;116170;1297;22440;-68
2022/11/10 09:04:19;;;;;;;;;;;;;;;10.61;91.90;100911.92;116157;1290;22868;-69
2022/11/10 09:07:12;;;;;;;;;;;;;;;10.61;91.79;100917.50;116107;1287;25250;-69
2022/11/10 09:10:01;;;;;;;;;;;;;;;10.62;91.68;100918.53;116125;1306;22439;-70
2022/11/10 09:12:48;;;;;;;;;;;;;;;10.67;91.99;100916.27;116061;1305;22440;-71
2022/11/10 09:15:38;;;;;;;;;;;;;;;10.74;92.07;100924.43;116110;1293;26077;-68
2022/11/10 09:18:26;;;;;;;;;;;;;;;10.80;92.35;100925.84;116112;1294;25226;-70
2022/11/10 09:21:16;;;;;;;;;;;;;;;10.83;92.27;100929.39;116101;1289;22454;-68
2022/11/10 09:24:17;;;;;;;;;;;;;;;10.84;91.90;100934.79;116100;1290;22452;-71
2022/11/10 09:27:04;;;;;;;;;;;;;;;10.84;91.60;100932.18;116137;1305;24288;-69
2022/11/10 09:29:54;;;;;;;;;;;;;;;10.88;91.97;100928.20;116154;1300;22456;-69
2022/11/10 09:32:45;;;;;;;;;;;;;;;10.95;91.89;100929.92;116114;1306;22531;-71
2022/11/10 09:35:35;;;;;;;;;;;;;;;11.00;91.79;100929.77;116134;1291;22484;-69
2022/11/10 09:38:22;;;;;;;;;;;;;;;11.06;91.96;100934.99;116128;1306;22388;-71
2022/11/10 09:41:14;;;;;;;;;;;;;;;11.11;91.99;100936.23;116151;1306;24296;-69
2022/11/10 09:44:03;;;;;;;;;;;;;;;11.14;92.01;100936.85;116104;1294;22471;-71
2022/11/10 09:46:53;;;;;;;;;;;;;;;11.16;91.67;100937.66;116132;1287;22472;-69
2022/11/10 09:49:44;;;;;;;;;;;;;;;11.21;91.76;100943.23;116134;1306;22453;-71
2022/11/10 09:52:33;;;;;;;;;;;;;;;11.28;91.84;100942.88;116091;1287;22439;-69
2022/11/10 09:55:25;;;;;;;;;;;;;;;11.31;91.50;100946.07;116129;1306;22517;-71
2022/11/10 09:58:13;;;;;;;;;;;;;;;11.35;91.78;100953.10;116114;1306;22442;-70
2022/11/10 10:01:07;;;;;;;;;;;;;;;11.39;91.71;100952.81;116142;1306;22461;-69
2022/11/10 10:04:01;;;;;;;;;;;;;;;11.36;91.37;100955.17;116133;1285;25355;-71
2022/11/10 10:06:53;;;;;;;;;;;;;;;11.33;91.26;100951.42;116232;1303;23255;-71
2022/11/10 10:09:44;;;;;;;;;;;;;;;11.36;91.37;100954.64;116191;1306;22536;-70
2022/11/10 10:12:46;;;;;;;;;;;;;;;11.43;91.53;100957.06;116145;1306;22560;-70
2022/11/10 10:15:43;;;;;;;;;;;;;;;11.54;91.70;100962.98;116164;1295;25354;-70
2022/11/10 10:18:34;;;;;;;;;;;;;;;11.63;91.99;100966.01;116084;1293;25354;-70
2022/11/10 10:21:40;;;;;;;;;;;;;;;11.71;91.87;100965.21;116106;1306;22399;-70
2022/11/10 10:24:29;;;;;;;;;;;;;;;11.80;92.03;100966.67;116112;1306;22462;-70
2022/11/10 10:27:20;;;;;;;;;;;;;;;11.87;91.96;100967.67;116090;1306;22599;-69
2022/11/10 10:30:18;;;;;;;;;;;;;;;11.89;91.75;100969.53;116122;1306;22440;-69
2022/11/10 10:33:13;;;;;;;;;;;;;;;11.93;91.39;100964.50;116112;1292;22446;-70
2022/11/10 10:36:06;;;;;;;;;;;;;;;12.00;91.39;100959.89;116155;1306;22441;-69
2022/11/10 10:39:01;;;;;;;;;;;;;;;12.06;91.30;100964.43;116137;1292;25851;-70
2022/11/10 10:41:50;;;;;;;;;;;;;;;12.09;91.01;100967.09;116189;1306;22563;-69
2022/11/10 10:44:39;;;;;;;;;;;;;;;12.13;91.00;100972.02;116167;1306;22440;-70
2022/11/10 10:47:37;;;;;;;;;;;;;;;12.17;90.80;100969.96;116075;1290;22529;-70
2022/11/10 10:50:31;;;;;;;;;;;;;;;12.20;90.62;100968.48;116159;1293;22417;-70
2022/11/10 10:53:18;;;;;;;;;;;;;;;12.26;90.75;100970.69;116091;1306;22439;-70
2022/11/10 10:56:13;;;;;;;;;;;;;;;12.35;90.90;100970.73;116145;1290;22466;-70
2022/11/10 10:59:03;;;;;;;;;;;;;;;12.41;90.74;100968.95;116104;1306;22491;-69
2022/11/10 11:01:54;;;;;;;;;;;;;;;12.49;90.67;100967.98;116168;1297;22464;-71
2022/11/10 11:04:41;;;;;;;;;;;;;;;12.53;90.40;100970.27;116137;1306;22442;-69
2022/11/10 11:07:28;;;;;;;;;;;;;;;12.58;90.36;100976.56;116133;1292;22488;-69
2022/11/10 11:10:22;;;;;;;;;;;;;;;12.60;90.00;100978.73;116146;1306;22522;-69
2022/11/10 11:13:20;;;;;;;;;;;;;;;12.60;89.78;100975.41;116205;1305;24261;-70
2022/11/10 11:16:11;;;;;;;;;;;;;;;12.59;89.47;100968.48;116144;1305;22662;-71
2022/11/10 11:19:01;;;;;;;;;;;;;;;12.59;89.30;100969.16;116113;1295;25361;-71
2022/11/10 11:21:56;;;;;;;;;;;;;;;12.66;89.55;100979.23;116131;1307;22423;-71
2022/11/10 11:24:45;;;;;;;;;;;;;;;12.71;89.27;100980.45;116119;1292;22460;-70
2022/11/10 11:27:39;;;;;;;;;;;;;;;12.76;89.16;100979.73;116071;1306;22467;-70
2022/11/10 11:30:31;;;;;;;;;;;;;;;12.80;89.10;100983.42;116124;1306;22396;-70
2022/11/10 11:33:29;;;;;;;;;;;;;;;12.80;88.70;100983.27;116099;1284;25321;-70
2022/11/10 11:36:24;;;;;;;;;;;;;;;12.76;88.50;100991.13;116151;1312;22391;-70
2022/11/10 11:39:19;;;;;;;;;;;;;;;12.75;88.36;100995.01;116140;1292;22410;-70
2022/11/10 11:42:12;;;;;;;;;;;;;;;12.73;88.27;100993.36;116133;1306;24265;-72
2022/11/10 11:45:11;;;;;;;;;;;;;;;12.70;88.20;100992.39;116041;1293;22718;-70
2022/11/10 11:48:33;;;;;;;;;;;;;;;12.71;88.36;100996.56;116146;1292;25427;-70
2022/11/10 11:54:46;;;;;;;;;;;;;;;12.83;88.20;100994.02;112553;1351;544478;-69
2022/11/10 11:57:40;;;;;;;;;;;;;;;12.88;88.06;100995.20;115567;1294;24274;-71
2022/11/10 12:00:30;;;;;;;;;;;;;;;12.90;87.79;101001.98;115575;1295;22458;-72
2022/11/10 12:03:33;;;;;;;;;;;;;;;12.92;87.87;101007.16;115561;1314;22526;-72
2022/11/10 12:06:32;;;;;;;;;;;;;;;12.92;87.91;101007.69;115623;1308;22447;-72
2022/11/10 12:09:22;;;;;;;;;;;;;;;12.94;87.68;101010.76;115476;1299;416755;-72
2022/11/10 12:12:29;;;;;;;;;;;;;;;12.95;87.49;101014.75;115747;1305;22632;-72
2022/11/10 12:15:24;;;;;;;;;;;;;;;12.96;87.28;101017.20;115712;1288;22448;-72
2022/11/10 12:18:18;;;;;;;;;;;;;;;12.95;87.16;101016.52;115711;1293;22447;-71
2022/11/10 12:21:20;;;;;;;;;;;;;;;12.97;87.13;101019.95;115702;1301;25208;-72
2022/11/10 12:24:22;;;;;;;;;;;;;;;12.99;86.98;101021.78;115645;1300;22481;-70
2022/11/10 12:27:13;;;;;;;;;;;;;;;13.03;87.06;101024.28;115681;1292;22658;-72
2022/11/10 12:30:03;;;;;;;;;;;;;;;13.05;86.94;101028.91;115722;1313;22447;-72
2022/11/10 12:32:52;;;;;;;;;;;;;;;13.05;86.59;101033.31;115708;1313;22925;-72
2022/11/10 12:35:40;;;;;;;;;;;;;;;12.99;86.16;101036.50;115769;1293;22504;-72
2022/11/10 12:38:31;;;;;;;;;;;;;;;12.91;86.03;101041.17;115684;1287;22502;-72
2022/11/10 12:41:20;;;;;;;;;;;;;;;12.85;85.94;101045.75;115718;1312;25352;-72
2022/11/10 12:44:17;;;;;;;;;;;;;;;12.79;85.84;101048.79;115668;1311;25247;-72
2022/11/10 12:47:07;;;;;;;;;;;;;;;12.72;85.82;101058.13;115678;1301;22759;-72
2022/11/10 12:49:57;;;;;;;;;;;;;;;12.66;85.92;101055.56;115692;1313;22473;-71
2022/11/10 12:52:47;;;;;;;;;;;;;;;12.58;85.81;101051.45;115680;1298;22460;-71
2022/11/10 12:55:41;;;;;;;;;;;;;;;12.56;86.04;101051.71;115861;1308;22530;-70
2022/11/10 12:58:29;;;;;;;;;;;;;;;12.56;86.38;101059.05;115816;1303;22472;-69
2022/11/10 13:01:17;;;;;;;;;;;;;;;12.58;86.30;101064.75;115845;1311;24268;-71
2022/11/10 13:04:10;;;;;;;;;;;;;;;12.62;86.33;101067.23;115800;1310;22442;-71
2022/11/10 13:06:59;;;;;;;;;;;;;;;12.64;86.57;101069.27;115843;1292;25363;-72
2022/11/10 13:09:46;;;;;;;;;;;;;;;12.66;86.40;101073.59;115855;1311;22467;-71
2022/11/10 13:12:34;;;;;;;;;;;;;;;12.61;86.11;101078.65;115814;1292;22411;-71
2022/11/10 13:15:51;;;;;;;;;;;;;;;12.54;85.73;101081.17;115893;1298;22510;-71
2022/11/10 13:19:03;;;;;;;;;;;;;;;12.45;85.75;101088.33;115769;1305;23967;-69
2022/11/10 13:22:13;;;;;;;;;;;;;;;12.36;85.86;101091.43;115826;1306;22418;-71
2022/11/10 13:25:35;;;;;;;;;;;;;;;12.27;85.66;101098.91;115842;1313;24247;-72
2022/11/10 13:28:53;;;;;;;;;;;;;;;12.21;85.77;101108.00;115787;1312;22450;-72
2022/11/10 13:31:57;;;;;;;;;;;;;;;12.20;85.85;101106.48;115869;1307;22482;-71
2022/11/10 13:34:45;;;;;;;;;;;;;;;12.21;85.93;101108.35;115857;1313;22446;-70
2022/11/10 13:37:49;;;;;;;;;;;;;;;12.20;86.03;101109.28;115864;1313;24286;-70
2022/11/10 13:40:39;;;;;;;;;;;;;;;12.13;85.58;101114.41;115924;1291;25192;-72
2022/11/10 13:43:31;;;;;;;;;;;;;;;12.04;85.60;101120.64;115928;1310;24270;-70
2022/11/10 13:46:19;;;;;;;;;;;;;;;11.95;85.46;101128.98;115923;1310;25819;-70
2022/11/10 13:49:30;;;;;;;;;;;;;;;11.86;85.76;101136.25;115881;1310;22548;-70
2022/11/10 13:52:18;;;;;;;;;;;;;;;11.77;85.76;101140.35;115881;1303;22454;-71
2022/11/10 13:55:17;;;;;;;;;;;;;;;11.68;85.91;101142.38;115870;1310;24271;-72
2022/11/10 13:58:06;;;;;;;;;;;;;;;11.62;86.13;101146.73;115868;1295;24314;-71
2022/11/10 14:01:29;;;;;;;;;;;;;;;11.64;86.53;101150.17;115870;1300;22415;-72
2022/11/10 14:04:46;;;;;;;;;;;;;;;11.71;86.55;101151.70;115880;1291;22591;-71
2022/11/10 14:07:37;;;;;;;;;;;;;;;11.76;86.62;101162.04;115144;1318;24579;-72
2022/11/10 14:10:33;;;;;;;;;;;;;;;11.79;86.68;101165.99;115824;1310;22731;-71
2022/11/10 14:13:23;;;;;;;;;;;;;;;11.79;86.60;101169.65;115862;1300;22466;-71
2022/11/10 14:16:16;;;;;;;;;;;;;;;11.73;86.44;101177.35;115914;1310;24369;-71
2022/11/10 14:19:17;;;;;;;;;;;;;;;11.60;85.96;101177.03;115883;1290;22445;-71
2022/11/10 14:22:06;;;;;;;;;;;;;;;11.45;86.06;101182.03;115844;1310;25198;-71
2022/11/10 14:25:02;;;;;;;;;;;;;;;11.30;85.87;101183.99;115915;1292;22704;-71
2022/11/10 14:27:53;;;;;;;;;;;;;;;11.18;85.94;101187.48;115847;1286;22462;-71
2022/11/10 14:30:40;;;;;;;;;;;;;;;11.08;86.12;101188.11;115887;1297;22451;-69
2022/11/10 14:33:27;;;;;;;;;;;;;;;11.01;86.55;101188.80;115838;1294;24271;-70
2022/11/10 14:36:15;;;;;;;;;;;;;;;10.96;86.67;101200.46;115879;1292;22542;-70
2022/11/10 14:39:13;;;;;;;;;;;;;;;10.90;86.62;101208.33;115844;1296;26044;-71
2022/11/10 14:42:04;;;;;;;;;;;;;;;10.78;86.51;101219.79;115832;1300;22572;-71
2022/11/10 14:44:53;;;;;;;;;;;;;;;10.67;86.62;101225.12;115893;1310;23771;-71
2022/11/10 14:47:40;;;;;;;;;;;;;;;10.56;86.66;101224.00;115881;1308;22450;-70
2022/11/10 14:50:28;;;;;;;;;;;;;;;10.44;86.69;101232.83;116094;1294;22457;-71